createdAt,value
2017-08-29T00:01:23.408Z,8.10
2017-08-29T00:03:54.462Z,7.57
2017-08-29T00:06:21.967Z,8.00
2017-08-29T00:08:55.663Z,8.43
2017-08-29T00:11:23.511Z,10.47
2017-08-29T00:13:50.997Z,9.10
2017-08-29T00:16:24.881Z,7.90
2017-08-29T00:18:52.362Z,7.87
2017-08-29T00:21:19.841Z,8.30
2017-08-29T00:23:47.334Z,9.73
2017-08-29T00:26:25.146Z,13.20
2017-08-29T00:28:54.108Z,9.00
2017-08-29T00:31:24.820Z,9.47
2017-08-29T00:33:52.589Z,11.10
2017-08-29T00:36:20.075Z,9.50
2017-08-29T00:38:47.554Z,13.03
2017-08-29T00:41:15.060Z,10.40
2017-08-29T00:43:42.546Z,11.63
2017-08-29T00:46:15.985Z,8.70
2017-08-29T00:48:43.474Z,8.97
2017-08-29T00:51:11.287Z,8.67
2017-08-29T00:53:44.624Z,10.20
2017-08-29T00:56:15.849Z,9.60
2017-08-29T00:58:44.082Z,8.23
2017-08-29T01:01:11.569Z,8.40
2017-08-29T01:03:39.061Z,7.37
2017-08-29T01:06:14.019Z,7.50
2017-08-29T01:08:41.826Z,8.07
2017-08-29T01:11:15.288Z,7.57
2017-08-29T01:13:43.047Z,6.43
2017-08-29T01:16:14.371Z,6.73
2017-08-29T01:18:41.869Z,7.37
2017-08-29T01:21:15.601Z,7.90
2017-08-29T01:23:44.200Z,8.47
2017-08-29T01:26:11.682Z,9.20
2017-08-29T01:28:45.146Z,7.50
2017-08-29T01:31:12.622Z,7.73
2017-08-29T01:33:40.465Z,8.97
2017-08-29T01:36:07.959Z,9.40
2017-08-29T01:38:35.439Z,10.67
2017-08-29T01:41:02.944Z,7.60
2017-08-29T01:43:30.431Z,9.60
2017-08-29T01:45:58.271Z,7.40
2017-08-29T01:48:33.979Z,10.17
2017-08-29T01:51:01.773Z,9.10
2017-08-29T01:53:29.262Z,7.90
2017-08-29T01:55:56.747Z,9.63
2017-08-29T01:58:34.127Z,10.13
2017-08-29T02:01:01.621Z,9.60
2017-08-29T02:03:35.729Z,8.03
2017-08-29T02:06:03.210Z,8.33
2017-08-29T02:08:30.704Z,8.40
2017-08-29T02:10:58.194Z,14.87
2017-08-29T02:13:26.683Z,9.17
2017-08-29T02:16:03.874Z,8.00
2017-08-29T02:18:31.360Z,7.50
2017-08-29T02:21:05.572Z,8.70
2017-08-29T02:23:33.059Z,9.03
2017-08-29T02:26:06.692Z,7.10
2017-08-29T02:28:43.974Z,14.17
2017-08-29T02:31:11.794Z,11.70
2017-08-29T02:33:39.272Z,8.60
2017-08-29T02:36:14.328Z,9.87
2017-08-29T02:38:41.812Z,7.87
2017-08-29T02:41:15.436Z,7.23
2017-08-29T02:43:42.929Z,10.43
2017-08-29T02:46:10.411Z,7.97
2017-08-29T02:48:37.923Z,13.83
2017-08-29T02:51:05.408Z,7.77
2017-08-29T02:53:33.255Z,7.97
2017-08-29T02:56:00.729Z,7.73
2017-08-29T02:58:28.220Z,9.70
2017-08-29T03:01:03.620Z,9.87
2017-08-29T03:03:31.104Z,10.23
2017-08-29T03:06:05.074Z,11.23
2017-08-29T03:08:33.333Z,10.03
2017-08-29T03:11:06.790Z,10.17
2017-08-29T03:13:34.276Z,11.53
2017-08-29T03:16:01.762Z,18.60
2017-08-29T03:18:29.263Z,12.13
2017-08-29T03:21:03.608Z,13.20
2017-08-29T03:23:34.550Z,10.17
2017-08-29T03:26:02.043Z,11.60
2017-08-29T03:28:29.926Z,11.90
2017-08-29T03:31:04.353Z,11.43
2017-08-29T03:33:35.589Z,14.63
2017-08-29T03:36:04.731Z,12.87
2017-08-29T03:38:32.212Z,9.50
2017-08-29T03:40:59.713Z,11.20
2017-08-29T03:43:27.200Z,10.10
2017-08-29T03:46:04.473Z,9.30
2017-08-29T03:48:31.966Z,12.13
2017-08-29T03:50:59.759Z,16.63
2017-08-29T03:53:33.875Z,10.67
2017-08-29T03:56:05.214Z,13.27
2017-08-29T03:58:34.509Z,7.80
2017-08-29T04:01:02.007Z,10.67
2017-08-29T04:03:36.006Z,10.53
2017-08-29T04:06:04.816Z,10.00
2017-08-29T04:08:32.617Z,17.93
2017-08-29T04:11:00.099Z,9.70
2017-08-29T04:13:27.600Z,12.07
2017-08-29T04:16:04.827Z,14.87
2017-08-29T04:18:32.322Z,12.30
2017-08-29T04:21:06.314Z,12.00
2017-08-29T04:23:34.567Z,10.10
2017-08-29T04:26:05.440Z,9.13
2017-08-29T04:28:34.643Z,11.33
2017-08-29T04:31:02.141Z,15.50
2017-08-29T04:33:29.628Z,9.60
2017-08-29T04:36:04.198Z,10.10
2017-08-29T04:38:32.044Z,13.10
2017-08-29T04:41:05.391Z,12.80
2017-08-29T04:43:33.203Z,11.23
2017-08-29T04:46:04.188Z,18.17
2017-08-29T04:48:35.584Z,10.40
2017-08-29T04:51:04.000Z,21.30
2017-08-29T04:53:31.495Z,15.43
2017-08-29T04:56:05.435Z,13.70
2017-08-29T04:58:33.700Z,13.83
2017-08-29T05:01:01.186Z,14.50
2017-08-29T05:03:29.037Z,12.27
2017-08-29T05:05:57.305Z,15.87
2017-08-29T05:08:35.104Z,13.83
2017-08-29T05:11:02.607Z,10.43
2017-08-29T05:13:30.101Z,12.53
2017-08-29T05:16:04.071Z,17.13
2017-08-29T05:18:31.567Z,16.73
2017-08-29T05:20:59.063Z,21.90
2017-08-29T05:23:26.554Z,14.83
2017-08-29T05:25:54.379Z,12.17
2017-08-29T05:28:25.317Z,11.43
2017-08-29T05:30:55.830Z,13.30
2017-08-29T05:33:23.315Z,13.30
2017-08-29T05:35:50.820Z,13.33
2017-08-29T05:38:18.328Z,11.67
2017-08-29T05:40:53.990Z,13.33
2017-08-29T05:43:22.310Z,10.80
2017-08-29T05:45:49.800Z,13.37
2017-08-29T05:48:23.991Z,12.70
2017-08-29T05:50:51.491Z,12.67
2017-08-29T05:53:18.990Z,16.17
2017-08-29T05:55:54.095Z,12.67
2017-08-29T05:58:25.183Z,18.37
2017-08-29T06:00:52.983Z,20.40
2017-08-29T06:03:24.869Z,11.73
2017-08-29T06:05:52.385Z,13.23
2017-08-29T06:08:26.648Z,16.73
2017-08-29T06:10:54.172Z,14.50
2017-08-29T06:13:21.698Z,11.77
2017-08-29T06:15:49.480Z,13.23
2017-08-29T06:18:24.230Z,16.13
2017-08-29T06:20:52.760Z,11.47
2017-08-29T06:23:20.255Z,14.03
2017-08-29T06:25:47.751Z,10.23
2017-08-29T06:28:15.260Z,9.30
2017-08-29T06:30:42.742Z,11.53
2017-08-29T06:33:10.531Z,11.50
2017-08-29T06:35:44.316Z,10.97
2017-08-29T06:38:12.231Z,9.00
2017-08-29T06:40:45.790Z,9.80
2017-08-29T06:43:13.674Z,12.83
2017-08-29T06:45:41.175Z,11.70
2017-08-29T06:48:08.663Z,11.50
2017-08-29T06:50:43.740Z,10.23
2017-08-29T06:53:11.230Z,13.10
2017-08-29T06:55:45.205Z,10.77
2017-08-29T06:58:12.696Z,8.57
2017-08-29T07:00:40.486Z,10.05
2017-08-29T07:03:14.570Z,14.17
2017-08-29T07:05:45.868Z,15.00
2017-08-29T07:08:13.356Z,8.20
2017-08-29T07:10:43.976Z,8.07
2017-08-29T07:13:14.853Z,8.93
2017-08-29T07:15:42.334Z,7.70
2017-08-29T07:18:16.047Z,6.93
2017-08-29T07:20:44.059Z,6.33
2017-08-29T07:23:15.007Z,7.50
2017-08-29T07:25:42.802Z,8.80
2017-08-29T07:28:10.295Z,7.73
2017-08-29T07:30:44.678Z,7.43
2017-08-29T07:33:15.211Z,10.40
2017-08-29T07:35:42.700Z,7.80
2017-08-29T07:38:16.412Z,7.17
2017-08-29T07:40:43.908Z,7.77
2017-08-29T07:43:11.408Z,7.10
2017-08-29T07:45:45.433Z,7.20
2017-08-29T07:48:13.707Z,6.20
2017-08-29T07:50:44.389Z,8.60
2017-08-29T07:53:12.163Z,8.20
2017-08-29T07:55:39.665Z,7.07
2017-08-29T07:58:14.699Z,6.33
2017-08-29T08:00:44.690Z,5.23
2017-08-29T08:03:12.184Z,6.63
2017-08-29T08:05:45.952Z,6.97
2017-08-29T08:08:13.435Z,4.77
2017-08-29T08:10:41.969Z,4.63
2017-08-29T08:13:15.217Z,4.00
2017-08-29T08:15:44.557Z,4.60
2017-08-29T08:18:15.696Z,3.93
2017-08-29T08:20:44.551Z,4.53
2017-08-29T08:23:15.775Z,3.50
2017-08-29T08:25:43.258Z,3.87
2017-08-29T08:28:10.775Z,9.30
2017-08-29T08:30:44.347Z,2.57
2017-08-29T08:33:12.117Z,4.57
2017-08-29T08:35:39.598Z,3.57
2017-08-29T08:38:07.088Z,4.10
2017-08-29T08:40:45.237Z,4.93
2017-08-29T08:43:15.788Z,3.80
2017-08-29T08:45:43.297Z,3.72
2017-08-29T08:48:10.795Z,3.03
2017-08-29T08:50:44.341Z,3.57
2017-08-29T08:53:15.487Z,3.00
2017-08-29T08:55:44.245Z,3.43
2017-08-29T08:58:15.420Z,3.37
2017-08-29T09:00:42.939Z,5.20
2017-08-29T09:03:16.653Z,3.10
2017-08-29T09:05:44.129Z,2.97
2017-08-29T09:08:11.606Z,4.47
2017-08-29T09:10:45.385Z,3.80
2017-08-29T09:13:13.987Z,3.03
2017-08-29T09:15:41.556Z,4.83
2017-08-29T09:18:15.253Z,4.43
2017-08-29T09:20:43.516Z,4.33
2017-08-29T09:23:11.024Z,10.13
2017-08-29T09:25:44.581Z,6.30
2017-08-29T09:28:14.807Z,3.03
2017-08-29T09:30:42.316Z,5.30
2017-08-29T09:33:09.852Z,3.60
2017-08-29T09:35:44.550Z,8.40
2017-08-29T09:38:14.437Z,4.43
2017-08-29T09:40:41.932Z,3.53
2017-08-29T09:43:10.182Z,2.50
2017-08-29T09:45:44.543Z,2.97
2017-08-29T09:48:12.022Z,4.33
2017-08-29T09:50:42.300Z,3.10
2017-08-29T09:53:14.040Z,3.10
2017-08-29T09:55:44.755Z,3.43
2017-08-29T09:58:12.558Z,3.47
2017-08-29T10:00:40.829Z,4.80
2017-08-29T10:03:08.332Z,2.87
2017-08-29T10:05:45.574Z,4.03
2017-08-29T10:08:13.061Z,3.47
2017-08-29T10:10:46.352Z,2.83
2017-08-29T10:13:13.851Z,2.83
2017-08-29T10:15:41.451Z,9.73
2017-08-29T10:18:15.578Z,3.63
2017-08-29T10:20:44.328Z,4.30
2017-08-29T10:23:12.591Z,3.90
2017-08-29T10:25:40.080Z,3.30
2017-08-29T10:28:14.875Z,2.90
2017-08-29T10:30:42.355Z,4.40
2017-08-29T10:33:09.847Z,3.73
2017-08-29T10:35:37.344Z,3.03
2017-08-29T10:38:04.848Z,2.97
2017-08-29T10:40:35.960Z,4.17
2017-08-29T10:43:04.227Z,3.27
2017-08-29T10:45:31.725Z,3.13
2017-08-29T10:48:05.426Z,3.93
2017-08-29T10:50:34.338Z,3.53
2017-08-29T10:53:01.840Z,3.70
2017-08-29T10:55:30.095Z,2.47
2017-08-29T10:57:57.892Z,4.63
2017-08-29T11:00:33.973Z,2.60
2017-08-29T11:03:01.821Z,3.00
2017-08-29T11:05:35.284Z,4.17
2017-08-29T11:08:04.629Z,3.90
2017-08-29T11:10:32.117Z,3.20
2017-08-29T11:12:59.611Z,2.87
2017-08-29T11:15:34.386Z,4.00
2017-08-29T11:18:01.867Z,2.80
2017-08-29T11:20:30.256Z,3.47
2017-08-29T11:23:03.940Z,3.40
2017-08-29T11:25:31.758Z,3.90
2017-08-29T11:28:00.015Z,3.37
2017-08-29T11:30:28.050Z,3.40
2017-08-29T11:33:03.706Z,3.63
2017-08-29T11:35:34.564Z,3.20
2017-08-29T11:38:02.321Z,4.63
2017-08-29T11:40:35.779Z,4.47
2017-08-29T11:43:04.991Z,3.80
2017-08-29T11:45:32.479Z,3.30
2017-08-29T11:47:59.972Z,3.10
2017-08-29T11:50:28.572Z,3.80
2017-08-29T11:52:56.063Z,3.40
2017-08-29T11:55:24.162Z,3.30
2017-08-29T11:57:51.651Z,3.77
2017-08-29T12:00:19.908Z,3.53
2017-08-29T12:02:47.698Z,3.80
2017-08-29T12:05:15.186Z,3.80
2017-08-29T12:07:42.674Z,7.20
2017-08-29T12:10:16.658Z,5.10
2017-08-29T12:12:54.618Z,3.43
2017-08-29T12:15:22.887Z,4.60
2017-08-29T12:17:54.452Z,4.07
2017-08-29T12:20:22.784Z,4.67
2017-08-29T12:22:50.272Z,4.87
2017-08-29T12:25:18.042Z,4.00
2017-08-29T12:27:45.564Z,4.30
2017-08-29T12:30:14.883Z,3.67
2017-08-29T12:32:45.740Z,4.80
2017-08-29T12:35:14.239Z,3.40
2017-08-29T12:37:44.957Z,3.93
2017-08-29T12:40:15.585Z,4.27
2017-08-29T12:42:43.085Z,4.30
2017-08-29T12:45:10.571Z,3.90
2017-08-29T12:47:38.086Z,4.30
2017-08-29T12:50:15.500Z,5.53
2017-08-29T12:52:43.330Z,4.20
2017-08-29T12:55:14.178Z,3.93
2017-08-29T12:57:42.456Z,4.10
2017-08-29T13:00:16.460Z,4.97
2017-08-29T13:02:43.968Z,4.47
2017-08-29T13:05:11.477Z,4.90
2017-08-29T13:07:44.643Z,4.27
2017-08-29T13:10:15.571Z,4.97
2017-08-29T13:12:43.067Z,4.27
2017-08-29T13:15:16.920Z,5.60
2017-08-29T13:17:44.424Z,6.57
2017-08-29T13:20:14.291Z,4.40
2017-08-29T13:22:41.787Z,4.53
2017-08-29T13:25:15.648Z,4.00
2017-08-29T13:27:44.463Z,4.03
2017-08-29T13:30:11.948Z,4.60
2017-08-29T13:32:40.490Z,4.30
2017-08-29T13:35:13.830Z,3.70
2017-08-29T13:37:41.712Z,4.60
2017-08-29T13:40:15.295Z,6.13
2017-08-29T13:42:43.085Z,9.40
2017-08-29T13:45:10.575Z,3.17
2017-08-29T13:47:44.733Z,4.00
2017-08-29T13:50:12.304Z,4.23
2017-08-29T13:52:46.082Z,3.67
2017-08-29T13:55:13.576Z,4.33
2017-08-29T13:57:44.258Z,4.80
2017-08-29T14:00:14.995Z,5.53
2017-08-29T14:02:42.497Z,4.33
2017-08-29T14:05:16.094Z,3.70
2017-08-29T14:07:43.608Z,7.33
2017-08-29T14:10:11.414Z,4.53
2017-08-29T14:12:44.555Z,4.70
2017-08-29T14:15:15.886Z,4.40
2017-08-29T14:17:43.366Z,3.53
2017-08-29T14:20:10.861Z,3.80
2017-08-29T14:22:39.131Z,3.80
2017-08-29T14:25:06.616Z,6.53
2017-08-29T14:27:43.930Z,3.90
2017-08-29T14:30:11.420Z,5.50
2017-08-29T14:32:39.220Z,4.83
2017-08-29T14:35:13.826Z,4.10
2017-08-29T14:37:41.715Z,3.30
2017-08-29T14:40:09.984Z,3.27
2017-08-29T14:42:44.877Z,3.60
2017-08-29T14:45:15.500Z,3.77
2017-08-29T14:47:56.545Z,3.80
2017-08-29T14:50:24.032Z,3.87
2017-08-29T14:52:55.070Z,3.37
2017-08-29T14:55:25.791Z,6.37
2017-08-29T14:57:53.300Z,3.57
2017-08-29T15:00:26.948Z,4.40
2017-08-29T15:03:04.718Z,7.20
2017-08-29T15:05:32.579Z,4.50
2017-08-29T15:08:00.160Z,4.17
2017-08-29T15:10:27.652Z,4.00
2017-08-29T15:12:55.157Z,7.53
2017-08-29T15:15:23.996Z,5.10
2017-08-29T15:17:54.661Z,3.87
2017-08-29T15:20:22.156Z,4.63
2017-08-29T15:22:50.011Z,4.23
2017-08-29T15:25:24.483Z,6.17
2017-08-29T15:27:52.297Z,4.57
2017-08-29T15:30:19.800Z,4.77
2017-08-29T15:32:54.155Z,4.70
2017-08-29T15:35:21.655Z,5.17
2017-08-29T15:37:49.153Z,5.03
2017-08-29T15:40:16.951Z,5.00
2017-08-29T15:42:54.486Z,5.13
2017-08-29T15:45:22.314Z,5.57
2017-08-29T15:47:55.889Z,4.50
2017-08-29T15:50:25.135Z,5.13
2017-08-29T15:52:54.384Z,5.20
2017-08-29T15:55:21.883Z,5.70
2017-08-29T15:57:56.185Z,5.20
2017-08-29T16:00:23.684Z,6.33
2017-08-29T16:02:51.187Z,5.07
2017-08-29T16:05:25.060Z,6.00
2017-08-29T16:07:52.543Z,6.83
2017-08-29T16:10:20.355Z,7.37
2017-08-29T16:12:47.861Z,5.60
2017-08-29T16:15:25.295Z,4.70
2017-08-29T16:17:53.552Z,6.00
2017-08-29T16:20:21.068Z,5.27
2017-08-29T16:22:48.894Z,5.57
2017-08-29T16:25:23.750Z,5.23
2017-08-29T16:27:55.170Z,5.97
2017-08-29T16:30:24.372Z,6.57
2017-08-29T16:32:52.641Z,6.00
2017-08-29T16:35:20.141Z,5.43
2017-08-29T16:37:53.982Z,7.90
2017-08-29T16:40:25.359Z,7.63
2017-08-29T16:42:52.923Z,6.47
2017-08-29T16:45:26.381Z,10.47
2017-08-29T16:47:53.853Z,5.77
2017-08-29T16:50:24.638Z,5.37
2017-08-29T16:52:55.239Z,5.40
2017-08-29T16:55:22.815Z,5.40
2017-08-29T16:57:50.587Z,6.33
2017-08-29T17:00:18.134Z,5.90
2017-08-29T17:02:46.405Z,6.57
2017-08-29T17:05:14.993Z,7.30
2017-08-29T17:07:47.009Z,6.57
2017-08-29T17:10:24.606Z,6.07
2017-08-29T17:12:52.224Z,4.67
2017-08-29T17:15:19.711Z,5.77
2017-08-29T17:17:47.549Z,6.43
2017-08-29T17:20:25.568Z,5.87
2017-08-29T17:22:54.851Z,6.63
2017-08-29T17:25:24.194Z,6.20
2017-08-29T17:27:55.104Z,5.23
2017-08-29T17:30:22.620Z,5.80
2017-08-29T17:32:50.121Z,5.43
2017-08-29T17:35:24.303Z,6.63
2017-08-29T17:37:55.026Z,5.93
2017-08-29T17:40:26.025Z,5.50
2017-08-29T17:42:53.533Z,12.50
2017-08-29T17:45:25.267Z,5.30
2017-08-29T17:47:53.996Z,5.53
2017-08-29T17:50:21.487Z,5.83
2017-08-29T17:52:49.010Z,6.17
2017-08-29T17:55:24.079Z,6.07
2017-08-29T17:57:51.910Z,5.47
2017-08-29T18:00:20.173Z,6.73
2017-08-29T18:02:48.426Z,7.90
2017-08-29T18:05:24.251Z,7.57
2017-08-29T18:07:51.756Z,8.37
2017-08-29T18:10:25.909Z,6.37
2017-08-29T18:12:54.623Z,6.57
2017-08-29T18:15:25.723Z,6.93
2017-08-29T18:17:54.951Z,12.60
2017-08-29T18:20:25.955Z,8.00
2017-08-29T18:22:53.447Z,6.33
2017-08-29T18:25:20.971Z,7.87
2017-08-29T18:27:55.612Z,6.23
2017-08-29T18:30:23.108Z,6.20
2017-08-29T18:32:50.598Z,7.13
2017-08-29T18:35:18.084Z,6.77
2017-08-29T18:37:45.898Z,5.90
2017-08-29T18:40:13.405Z,7.60
2017-08-29T18:42:40.902Z,7.50
2017-08-29T18:45:08.670Z,8.27
2017-08-29T18:47:36.171Z,6.40
2017-08-29T18:50:03.670Z,6.23
2017-08-29T18:52:31.456Z,7.73
2017-08-29T18:55:04.703Z,7.17
2017-08-29T18:57:32.559Z,15.40
2017-08-29T19:00:00.828Z,12.70
2017-08-29T19:02:34.368Z,7.00
2017-08-29T19:05:01.876Z,7.83
2017-08-29T19:07:29.359Z,7.20
2017-08-29T19:09:58.626Z,7.63
2017-08-29T19:12:26.150Z,6.80
2017-08-29T19:14:54.160Z,6.23
2017-08-29T19:17:24.689Z,5.77
2017-08-29T19:19:55.783Z,9.53
2017-08-29T19:22:24.098Z,8.07
2017-08-29T19:24:54.821Z,7.00
2017-08-29T19:27:22.638Z,7.43
2017-08-29T19:29:56.161Z,5.80
2017-08-29T19:32:23.938Z,7.97
2017-08-29T19:34:54.559Z,8.10
2017-08-29T19:37:22.056Z,9.97
2017-08-29T19:39:49.879Z,9.20
2017-08-29T19:42:24.316Z,6.97
2017-08-29T19:44:52.169Z,7.23
2017-08-29T19:47:19.665Z,7.20
2017-08-29T19:49:47.159Z,8.00
2017-08-29T19:52:25.315Z,7.50
2017-08-29T19:54:52.859Z,8.97
2017-08-29T19:57:20.417Z,8.43
2017-08-29T19:59:54.116Z,7.43
2017-08-29T20:02:24.852Z,9.50
2017-08-29T20:04:52.352Z,11.60
2017-08-29T20:07:19.858Z,12.40
2017-08-29T20:09:47.361Z,9.53
2017-08-29T20:12:15.183Z,7.30
2017-08-29T20:14:42.685Z,7.40
2017-08-29T20:17:10.180Z,9.60
2017-08-29T20:19:44.640Z,8.90
2017-08-29T20:22:12.127Z,9.70
2017-08-29T20:24:39.617Z,8.40
2017-08-29T20:27:07.878Z,8.63
2017-08-29T20:29:45.108Z,9.40
2017-08-29T20:32:14.402Z,18.07
2017-08-29T20:34:41.979Z,9.83
2017-08-29T20:37:15.409Z,7.60
2017-08-29T20:39:44.123Z,7.53
2017-08-29T20:42:12.376Z,7.70
2017-08-29T20:44:46.431Z,11.17
2017-08-29T20:47:14.432Z,9.27
2017-08-29T20:49:41.935Z,8.77
2017-08-29T20:52:10.205Z,8.63
2017-08-29T20:54:37.978Z,9.50
2017-08-29T20:57:15.151Z,8.67
2017-08-29T20:59:43.036Z,13.40
2017-08-29T21:02:10.536Z,11.33
2017-08-29T21:04:43.975Z,9.40
2017-08-29T21:07:11.488Z,8.23
2017-08-29T21:09:38.976Z,7.80
2017-08-29T21:12:14.489Z,7.47
2017-08-29T21:14:41.973Z,8.97
2017-08-29T21:17:15.935Z,9.10
2017-08-29T21:19:44.573Z,8.27
2017-08-29T21:22:15.660Z,8.90
2017-08-29T21:24:44.164Z,12.60
2017-08-29T21:27:11.652Z,9.33
2017-08-29T21:29:39.160Z,7.67
2017-08-29T21:32:14.128Z,11.33
2017-08-29T21:34:45.004Z,11.70
2017-08-29T21:37:12.493Z,7.50
2017-08-29T21:39:46.328Z,8.63
2017-08-29T21:42:13.817Z,8.47
2017-08-29T21:44:41.310Z,8.23
2017-08-29T21:47:15.279Z,8.17
2017-08-29T21:49:42.776Z,9.30
2017-08-29T21:52:10.646Z,8.93
2017-08-29T21:54:38.899Z,9.20
2017-08-29T21:57:14.295Z,10.83
2017-08-29T21:59:41.783Z,11.00
2017-08-29T22:02:15.372Z,10.63
2017-08-29T22:04:42.853Z,7.77
2017-08-29T22:07:16.854Z,11.43
2017-08-29T22:09:54.098Z,8.73
2017-08-29T22:12:22.035Z,9.10
2017-08-29T22:14:55.423Z,8.70
2017-08-29T22:17:23.311Z,17.70
2017-08-29T22:19:54.294Z,8.17
2017-08-29T22:22:21.793Z,8.30
2017-08-29T22:24:49.288Z,9.37
2017-08-29T22:27:16.766Z,8.37
2017-08-29T22:29:55.035Z,9.67
2017-08-29T22:32:22.521Z,8.13
2017-08-29T22:34:56.706Z,9.93
2017-08-29T22:37:24.194Z,11.43
2017-08-29T22:39:55.157Z,9.13
2017-08-29T22:42:22.665Z,13.80
2017-08-29T22:44:50.919Z,8.87
2017-08-29T22:47:24.685Z,9.30
2017-08-29T22:49:55.535Z,11.30
2017-08-29T22:52:23.436Z,20.20
2017-08-29T22:54:50.922Z,8.90
2017-08-29T22:57:18.406Z,9.83
2017-08-29T22:59:45.908Z,8.17
2017-08-29T23:02:14.177Z,10.53
2017-08-29T23:04:44.787Z,12.70
2017-08-29T23:07:15.377Z,9.67
2017-08-29T23:09:44.350Z,7.33
2017-08-29T23:12:15.649Z,9.53
2017-08-29T23:14:43.137Z,9.07
2017-08-29T23:17:10.642Z,12.27
2017-08-29T23:19:43.925Z,13.13
2017-08-29T23:22:11.787Z,9.40
2017-08-29T23:24:39.297Z,10.53
2017-08-29T23:27:13.940Z,10.10
2017-08-29T23:29:44.567Z,10.67
2017-08-29T23:32:15.756Z,13.83
2017-08-29T23:34:43.984Z,16.43
2017-08-29T23:37:14.519Z,11.33
2017-08-29T23:39:45.159Z,10.03
2017-08-29T23:42:15.777Z,12.23
2017-08-29T23:44:43.555Z,9.53
2017-08-29T23:47:14.864Z,8.90
2017-08-29T23:49:45.771Z,9.93
2017-08-29T23:52:13.253Z,10.83
2017-08-29T23:54:40.740Z,9.70
2017-08-29T23:57:14.128Z,10.70
2017-08-29T23:59:45.137Z,8.87
